Time;durP1;ratioP1;P1;durP2;ratioP2;P2;SDS_P1;SDS_P2;PMS_P1;PMS_P2;Temp;Humidity;BMP_temperature;BMP_pressure;BME280_temperature;BME280_humidity;BME280_pressure;Samples;Min_cycle;Max_cycle;Signal;HPM_P1;HPM_P2
2021/07/22 00:00:53;;;;;;;5.80;4.13;;;24.50;55.40;;;;;;4957518;28;20372;-80
2021/07/22 00:03:18;;;;;;;5.82;4.20;;;24.50;55.40;;;;;;4957802;28;20137;-80
2021/07/22 00:05:44;;;;;;;5.10;3.80;;;24.40;55.50;;;;;;4973240;28;20467;-80
2021/07/22 00:08:12;;;;;;;5.53;3.88;;;24.40;56.10;;;;;;4957674;28;20030;-79
2021/07/22 00:10:39;;;;;;;5.45;3.80;;;24.40;55.50;;;;;;4957458;28;20037;-80
2021/07/22 00:13:05;;;;;;;5.43;3.85;;;24.40;55.60;;;;;;4973853;28;20058;-80
2021/07/22 00:15:32;;;;;;;5.20;3.58;;;24.30;55.60;;;;;;4973507;28;20023;-80
2021/07/22 00:17:57;;;;;;;5.45;3.88;;;24.30;55.60;;;;;;4963119;28;20126;-80
2021/07/22 00:20:23;;;;;;;4.97;3.53;;;24.30;55.60;;;;;;4966272;28;20069;-80
2021/07/22 00:22:49;;;;;;;5.88;4.22;;;24.30;55.70;;;;;;4981128;28;20041;-81
2021/07/22 00:25:15;;;;;;;6.80;4.18;;;24.30;55.70;;;;;;4964211;28;20034;-81
2021/07/22 00:27:40;;;;;;;5.60;3.83;;;24.30;55.80;;;;;;4979946;28;20051;-80
2021/07/22 00:30:07;;;;;;;5.90;3.95;;;24.20;55.80;;;;;;4964313;28;20042;-81
2021/07/22 00:32:34;;;;;;;5.25;3.65;;;24.20;55.90;;;;;;4984452;28;20114;-80
2021/07/22 00:34:59;;;;;;;5.32;3.67;;;24.20;55.90;;;;;;4967372;28;20383;-80
2021/07/22 00:37:25;;;;;;;5.10;3.75;;;24.10;55.90;;;;;;4982819;28;20073;-81
2021/07/22 00:39:51;;;;;;;5.13;3.42;;;24.10;56.00;;;;;;4981911;28;20031;-80
2021/07/22 00:42:17;;;;;;;4.88;3.25;;;24.10;56.00;;;;;;4980825;28;20043;-79
2021/07/22 00:44:43;;;;;;;5.25;3.85;;;24.10;56.10;;;;;;4964148;28;20027;-80
2021/07/22 00:47:10;;;;;;;5.43;4.03;;;24.00;56.00;;;;;;4963935;28;20155;-80
2021/07/22 00:49:36;;;;;;;5.55;4.05;;;24.00;56.10;;;;;;4979873;28;20060;-80
2021/07/22 00:52:02;;;;;;;5.72;3.50;;;24.00;56.10;;;;;;4980089;28;20538;-79
2021/07/22 00:54:28;;;;;;;5.43;3.50;;;24.00;56.20;;;;;;4964654;28;20034;-80
2021/07/22 00:56:54;;;;;;;5.97;4.13;;;24.00;56.20;;;;;;4963589;28;20027;-79
2021/07/22 00:59:20;;;;;;;5.75;4.07;;;23.90;56.30;;;;;;4963786;28;20388;-80
2021/07/22 01:01:46;;;;;;;5.60;3.88;;;23.90;56.30;;;;;;4979555;28;20046;-79
2021/07/22 01:04:13;;;;;;;5.53;3.72;;;23.90;56.30;;;;;;4963559;28;20031;-79
2021/07/22 01:06:39;;;;;;;6.18;3.83;;;23.80;56.30;;;;;;4963912;28;20167;-80
2021/07/22 01:09:13;;;;;;;5.50;3.58;;;23.80;56.30;;;;;;4963987;28;20130;-80
2021/07/22 01:11:43;;;;;;;5.43;3.78;;;23.80;56.40;;;;;;4963555;28;20545;-80
2021/07/22 01:14:09;;;;;;;5.13;3.55;;;23.80;56.40;;;;;;4963905;28;20050;-80
2021/07/22 01:16:35;;;;;;;5.60;3.83;;;23.70;56.50;;;;;;4963923;28;20031;-80
2021/07/22 01:19:01;;;;;;;6.68;3.95;;;23.70;56.50;;;;;;4979539;28;20030;-80
2021/07/22 01:21:27;;;;;;;5.25;3.47;;;23.70;56.60;;;;;;4964079;28;20042;-80
2021/07/22 01:23:54;;;;;;;5.78;3.95;;;23.70;56.60;;;;;;4979648;28;20035;-80
2021/07/22 01:26:38;;;;;;;5.88;4.07;;;23.70;56.70;;;;;;4966287;28;20070;-80
2021/07/22 01:29:27;;;;;;;5.57;3.78;;;23.70;56.70;;;;;;4939121;28;20399;-80
2021/07/22 01:31:53;;;;;;;5.43;3.78;;;23.60;56.70;;;;;;4979080;28;20395;-80
2021/07/22 01:34:21;;;;;;;4.90;3.60;;;23.60;56.80;;;;;;4960735;28;20081;-79
2021/07/22 01:36:47;;;;;;;5.55;4.00;;;23.60;56.80;;;;;;4962136;28;20449;-79
2021/07/22 01:39:13;;;;;;;5.47;3.53;;;23.50;56.80;;;;;;4961023;28;20106;-80
2021/07/22 01:41:39;;;;;;;5.50;3.72;;;23.50;56.90;;;;;;4976303;28;20126;-80
2021/07/22 01:44:06;;;;;;;5.85;3.90;;;23.50;56.90;;;;;;4960210;28;20035;-80
2021/07/22 01:46:32;;;;;;;4.88;3.45;;;23.50;57.00;;;;;;4960406;28;20041;-80
2021/07/22 01:48:58;;;;;;;5.05;3.58;;;23.40;57.00;;;;;;4976277;28;20027;-80
2021/07/22 01:51:27;;;;;;;5.20;3.88;;;23.40;57.00;;;;;;4976324;28;20035;-80
2021/07/22 01:53:58;;;;;;;5.35;3.53;;;23.40;57.10;;;;;;4960723;28;20062;-80
2021/07/22 01:56:25;;;;;;;5.45;3.85;;;23.40;57.10;;;;;;4975939;28;20027;-80
2021/07/22 01:58:51;;;;;;;5.45;3.92;;;23.40;57.20;;;;;;4959543;28;20038;-80
2021/07/22 02:01:19;;;;;;;5.00;3.42;;;23.30;57.20;;;;;;4975768;28;20035;-79
2021/07/22 02:03:49;;;;;;;4.95;3.50;;;23.30;57.20;;;;;;4960239;28;20031;-80
2021/07/22 02:06:15;;;;;;;5.57;4.13;;;23.30;57.30;;;;;;4975573;28;20053;-80
2021/07/22 02:08:47;;;;;;;4.90;3.50;;;23.20;57.30;;;;;;4976512;28;20035;-80
2021/07/22 02:11:14;;;;;;;5.63;4.00;;;23.20;57.40;;;;;;4975755;28;20046;-80
2021/07/22 02:13:40;;;;;;;4.85;3.70;;;23.20;57.40;;;;;;4959630;28;20380;-80
2021/07/22 02:16:07;;;;;;;6.25;4.10;;;23.20;57.40;;;;;;4975743;28;20202;-80
2021/07/22 02:18:33;;;;;;;5.30;3.83;;;23.20;57.50;;;;;;4959562;28;20033;-80
2021/07/22 02:21:08;;;;;;;5.50;3.58;;;23.10;57.50;;;;;;4976175;28;20063;-80
2021/07/22 02:23:38;;;;;;;5.15;3.35;;;23.10;57.50;;;;;;4960204;28;20089;-80
2021/07/22 02:26:23;;;;;;;5.47;3.75;;;23.10;57.50;;;;;;4975415;28;20093;-80
2021/07/22 02:28:53;;;;;;;5.85;3.97;;;23.10;57.60;;;;;;4975638;28;20482;-80
2021/07/22 02:31:19;;;;;;;5.35;3.70;;;23.00;57.70;;;;;;4959239;28;20041;-80
2021/07/22 02:33:45;;;;;;;5.45;3.67;;;23.00;57.70;;;;;;4959375;28;20035;-80
2021/07/22 02:36:12;;;;;;;6.53;4.00;;;23.00;57.70;;;;;;4959522;28;20034;-80
2021/07/22 02:39:00;;;;;;;5.47;4.28;;;23.00;57.80;;;;;;4962398;28;20029;-80
2021/07/22 02:41:29;;;;;;;6.47;4.05;;;22.90;57.70;;;;;;4974777;28;20070;-80
2021/07/22 02:43:57;;;;;;;5.82;3.80;;;22.90;57.80;;;;;;4959930;28;20122;-80
2021/07/22 02:46:25;;;;;;;5.03;3.67;;;22.90;57.80;;;;;;4975171;28;20038;-81
2021/07/22 02:48:57;;;;;;;6.43;4.05;;;22.90;57.80;;;;;;4975218;28;20073;-80
2021/07/22 02:51:23;;;;;;;6.88;4.55;;;22.90;57.90;;;;;;4958793;28;20042;-80
2021/07/22 02:53:49;;;;;;;5.88;3.90;;;22.80;57.90;;;;;;4958812;28;20558;-80
2021/07/22 02:56:21;;;;;;;5.70;3.92;;;22.80;57.90;;;;;;4960450;28;20031;-80
2021/07/22 02:58:48;;;;;;;6.85;4.20;;;22.80;58.00;;;;;;4959087;28;20034;-79
2021/07/22 03:01:15;;;;;;;5.68;4.05;;;22.80;58.00;;;;;;4974980;28;20121;-80
2021/07/22 03:03:41;;;;;;;5.72;4.18;;;22.80;58.00;;;;;;4942959;28;20033;-80
2021/07/22 03:06:14;;;;;;;5.85;4.05;;;22.70;58.00;;;;;;4958641;28;20042;-80
2021/07/22 03:08:39;;;;;;;6.03;4.07;;;22.70;58.20;;;;;;4959338;28;20105;-81
2021/07/22 03:11:10;;;;;;;6.90;4.72;;;22.70;58.10;;;;;;4958709;28;20031;-80
2021/07/22 03:13:38;;;;;;;5.50;4.05;;;22.70;58.20;;;;;;4958450;28;20356;-79
2021/07/22 03:16:08;;;;;;;6.78;4.68;;;22.60;58.10;;;;;;4958431;28;20034;-79
2021/07/22 03:18:54;;;;;;;6.72;4.50;;;22.70;58.20;;;;;;4975810;28;20407;-80
2021/07/22 03:21:20;;;;;;;5.90;3.85;;;22.60;58.20;;;;;;4974157;28;20034;-79
2021/07/22 03:24:06;;;;;;;5.70;3.92;;;22.60;58.30;;;;;;4961948;28;20046;-78
2021/07/22 03:26:32;;;;;;;6.72;4.35;;;22.50;58.30;;;;;;4957980;28;20372;-80
2021/07/22 03:28:59;;;;;;;6.30;4.30;;;22.50;58.40;;;;;;4974865;28;20381;-80
2021/07/22 03:31:29;;;;;;;6.00;3.83;;;22.50;58.40;;;;;;4974370;28;20039;-79
2021/07/22 03:34:09;;;;;;;6.50;4.35;;;22.50;58.40;;;;;;4974074;28;20069;-79
2021/07/22 03:36:41;;;;;;;6.43;4.18;;;22.50;58.50;;;;;;4975341;28;20118;-80
2021/07/22 03:39:13;;;;;;;5.93;4.20;;;22.50;58.60;;;;;;4974655;28;20041;-80
2021/07/22 03:41:57;;;;;;;7.57;4.68;;;22.40;58.50;;;;;;4958071;28;20050;-80
2021/07/22 03:44:45;;;;;;;6.28;4.10;;;22.40;58.50;;;;;;4958296;28;20039;-79
2021/07/22 03:47:16;;;;;;;5.47;3.90;;;22.40;58.50;;;;;;4973820;28;20044;-79
2021/07/22 03:49:44;;;;;;;6.43;4.32;;;22.40;58.50;;;;;;4974505;28;20038;-79
2021/07/22 03:52:25;;;;;;;6.60;4.55;;;22.40;58.60;;;;;;4974411;28;20039;-79
2021/07/22 03:54:54;;;;;;;6.50;4.38;;;22.30;58.60;;;;;;4958120;28;20041;-80
2021/07/22 03:57:21;;;;;;;5.78;4.13;;;22.30;58.60;;;;;;4957742;28;20150;-79
2021/07/22 03:59:48;;;;;;;6.18;4.43;;;22.20;58.60;;;;;;4957731;28;20035;-80
2021/07/22 04:02:13;;;;;;;6.05;4.25;;;22.30;58.70;;;;;;4974279;28;20133;-80
2021/07/22 04:04:42;;;;;;;7.32;5.00;;;22.20;58.60;;;;;;4957704;28;20154;-80
2021/07/22 04:07:10;;;;;;;7.50;4.72;;;22.20;58.70;;;;;;4941670;28;20031;-79
2021/07/22 04:09:47;;;;;;;6.20;4.55;;;22.20;58.70;;;;;;4973999;28;20055;-76
2021/07/22 04:12:35;;;;;;;6.82;4.25;;;22.20;58.70;;;;;;4968076;28;20377;-77
2021/07/22 04:15:39;;;;;;;6.32;4.50;;;22.20;58.60;;;;;;4914878;29;20044;-75
2021/07/22 04:18:21;;;;;;;6.40;4.55;;;22.10;58.60;;;;;;4899288;29;20047;-75
2021/07/22 04:21:05;;;;;;;6.05;4.43;;;22.10;58.70;;;;;;4948563;28;20062;-77
2021/07/22 04:23:51;;;;;;;6.40;4.25;;;22.10;58.70;;;;;;4974114;28;20353;-76
2021/07/22 04:26:33;;;;;;;5.43;3.78;;;22.10;58.70;;;;;;4974302;28;20062;-76
2021/07/22 04:29:17;;;;;;;6.37;4.40;;;22.10;58.70;;;;;;4974696;28;20534;-77
2021/07/22 04:31:43;;;;;;;6.47;4.57;;;22.10;58.70;;;;;;4974087;28;20063;-76
2021/07/22 04:34:36;;;;;;;6.40;4.40;;;22.00;58.90;;;;;;4958191;28;20408;-75
2021/07/22 04:37:08;;;;;;;6.47;4.22;;;22.00;58.80;;;;;;4957898;28;20066;-75
2021/07/22 04:40:06;;;;;;;6.78;4.65;;;22.00;58.80;;;;;;4963501;28;20031;-75
2021/07/22 04:42:49;;;;;;;6.00;4.07;;;22.00;58.80;;;;;;4976092;28;20042;-75
2021/07/22 04:45:24;;;;;;;5.82;4.10;;;21.90;58.80;;;;;;4977116;28;20034;-76
2021/07/22 04:48:29;;;;;;;6.50;4.53;;;21.90;59.00;;;;;;4927571;29;20488;-76
2021/07/22 04:51:29;;;;;;;6.05;4.40;;;21.90;58.90;;;;;;4907181;29;20040;-78
2021/07/22 04:54:22;;;;;;;5.43;3.90;;;21.90;59.00;;;;;;4952266;28;20130;-76
2021/07/22 04:56:59;;;;;;;6.68;4.45;;;21.80;58.90;;;;;;4973110;28;20069;-76
2021/07/22 04:59:28;;;;;;;5.80;4.50;;;21.80;59.00;;;;;;4957906;28;20455;-75
2021/07/22 05:01:54;;;;;;;6.13;4.35;;;21.80;59.00;;;;;;4956908;28;20082;-77
2021/07/22 05:04:21;;;;;;;5.85;4.30;;;21.80;59.10;;;;;;4976387;28;20054;-84
2021/07/22 05:06:56;;;;;;;6.17;4.33;;;21.80;59.10;;;;;;4977602;28;20031;-81
2021/07/22 05:09:34;;;;;;;5.90;4.25;;;21.80;59.10;;;;;;4962583;28;20042;-82
2021/07/22 05:12:09;;;;;;;5.93;4.15;;;21.80;59.20;;;;;;4961687;28;20039;-84
2021/07/22 05:14:44;;;;;;;5.28;4.05;;;21.80;59.20;;;;;;4977780;28;20478;-80
2021/07/22 05:17:22;;;;;;;5.80;4.13;;;21.80;59.20;;;;;;4960657;28;20055;-80
2021/07/22 05:20:00;;;;;;;6.20;4.20;;;21.70;59.20;;;;;;4960671;28;20034;-80
2021/07/22 05:22:49;;;;;;;6.95;4.60;;;21.70;59.30;;;;;;4958377;28;20042;-82
2021/07/22 05:25:34;;;;;;;6.27;4.13;;;21.70;59.20;;;;;;4978150;28;20130;-81
2021/07/22 05:28:32;;;;;;;5.72;3.92;;;21.70;59.20;;;;;;4972337;28;20507;-79
2021/07/22 05:31:09;;;;;;;6.38;4.47;;;21.70;59.30;;;;;;4960489;28;20046;-82
2021/07/22 05:33:44;;;;;;;5.97;4.07;;;21.70;59.40;;;;;;4977462;28;20043;-82
2021/07/22 05:36:28;;;;;;;6.13;4.13;;;21.70;59.40;;;;;;4977446;28;20054;-80
2021/07/22 05:39:14;;;;;;;5.50;4.28;;;21.70;59.40;;;;;;4962553;28;20190;-79
2021/07/22 05:41:41;;;;;;;6.25;4.22;;;21.70;59.40;;;;;;4976012;28;20523;-80
2021/07/22 05:44:07;;;;;;;6.18;4.78;;;21.70;59.60;;;;;;4976176;28;20383;-79
2021/07/22 05:46:33;;;;;;;7.10;4.60;;;21.70;59.60;;;;;;4960704;28;20055;-80
2021/07/22 05:48:59;;;;;;;6.20;4.40;;;21.70;60.40;;;;;;4959937;28;20117;-78
2021/07/22 05:51:25;;;;;;;6.32;4.55;;;21.70;59.70;;;;;;4977796;28;20353;-78
2021/07/22 05:53:51;;;;;;;6.90;4.80;;;21.70;59.80;;;;;;4960524;28;20061;-79
2021/07/22 05:56:18;;;;;;;6.57;4.90;;;21.60;59.80;;;;;;4975949;28;20058;-79
2021/07/22 05:58:44;;;;;;;6.82;5.10;;;21.70;59.90;;;;;;4960117;28;20031;-81
2021/07/22 06:01:10;;;;;;;6.50;4.70;;;21.70;60.00;;;;;;4976117;28;20066;-79
2021/07/22 06:03:35;;;;;;;7.78;5.30;;;21.70;60.00;;;;;;4975796;28;20035;-79
2021/07/22 06:06:04;;;;;;;7.13;5.28;;;21.70;60.00;;;;;;4976093;28;20042;-80
2021/07/22 06:08:30;;;;;;;6.00;4.50;;;21.60;60.00;;;;;;4959603;28;20073;-80
2021/07/22 06:10:56;;;;;;;6.10;4.60;;;21.60;60.00;;;;;;4976223;28;20475;-81
2021/07/22 06:13:21;;;;;;;7.07;4.82;;;21.70;60.10;;;;;;4975677;28;20031;-80
2021/07/22 06:15:47;;;;;;;6.55;4.72;;;21.60;60.10;;;;;;4958919;28;20023;-79
2021/07/22 06:18:13;;;;;;;7.15;4.82;;;21.70;60.10;;;;;;4959574;28;20030;-80
2021/07/22 06:20:39;;;;;;;6.47;4.65;;;21.60;60.10;;;;;;4976179;28;20419;-80
2021/07/22 06:23:05;;;;;;;7.85;4.68;;;21.70;60.20;;;;;;4960270;28;20122;-80
2021/07/22 06:25:31;;;;;;;6.00;4.53;;;21.70;60.20;;;;;;4975557;28;20121;-79
2021/07/22 06:27:57;;;;;;;6.43;4.85;;;21.70;60.20;;;;;;4959290;28;20057;-81
2021/07/22 06:30:23;;;;;;;7.10;4.68;;;21.70;60.20;;;;;;4975693;28;20074;-80
2021/07/22 06:32:48;;;;;;;6.40;4.68;;;21.70;60.20;;;;;;4959211;28;20043;-80
2021/07/22 06:35:14;;;;;;;6.95;5.05;;;21.70;60.20;;;;;;4959067;28;20037;-79
2021/07/22 06:37:45;;;;;;;6.10;4.45;;;21.70;60.20;;;;;;4959467;28;20468;-80
2021/07/22 06:40:14;;;;;;;5.97;4.22;;;21.70;60.20;;;;;;4975328;28;20130;-80
2021/07/22 06:42:40;;;;;;;6.60;4.72;;;21.80;60.30;;;;;;4959333;28;20518;-79
2021/07/22 06:45:07;;;;;;;6.95;4.68;;;21.70;60.30;;;;;;4959335;28;20038;-79
2021/07/22 06:47:35;;;;;;;7.18;5.10;;;21.70;60.30;;;;;;4975635;28;20037;-80
2021/07/22 06:50:01;;;;;;;7.30;4.93;;;21.80;60.30;;;;;;4958798;28;20089;-80
2021/07/22 06:52:27;;;;;;;6.13;4.45;;;21.80;60.40;;;;;;4958873;28;20035;-80
2021/07/22 06:54:53;;;;;;;6.45;4.65;;;21.80;60.40;;;;;;4958840;28;20129;-80
2021/07/22 06:57:18;;;;;;;6.38;4.30;;;21.80;60.50;;;;;;4959096;28;20090;-81
2021/07/22 06:59:44;;;;;;;8.40;4.82;;;21.80;60.50;;;;;;4974951;28;20428;-80
2021/07/22 07:02:10;;;;;;;6.13;4.47;;;21.80;60.60;;;;;;4958639;28;20039;-80
2021/07/22 07:04:35;;;;;;;7.18;4.82;;;21.80;60.70;;;;;;4976364;28;20034;-80
2021/07/22 07:07:01;;;;;;;7.38;5.30;;;21.90;60.70;;;;;;4959173;28;20031;-81
2021/07/22 07:09:27;;;;;;;7.05;5.13;;;21.80;60.70;;;;;;4974777;28;20553;-80
2021/07/22 07:11:53;;;;;;;6.53;4.57;;;21.90;60.80;;;;;;4975296;28;20111;-79
2021/07/22 07:14:19;;;;;;;7.55;5.25;;;21.80;60.80;;;;;;4961463;28;20035;-80
2021/07/22 07:16:44;;;;;;;7.05;5.07;;;21.90;60.90;;;;;;4955378;29;20027;-79
2021/07/22 07:19:10;;;;;;;6.53;4.80;;;21.90;61.00;;;;;;4955537;29;20023;-80
2021/07/22 07:21:37;;;;;;;6.93;4.97;;;21.90;61.00;;;;;;4941339;28;20054;-80
2021/07/22 07:24:04;;;;;;;6.60;4.97;;;22.00;61.20;;;;;;4958549;28;20077;-81
2021/07/22 07:26:30;;;;;;;6.55;4.97;;;21.90;61.20;;;;;;4957304;28;20038;-80
2021/07/22 07:28:56;;;;;;;6.82;5.18;;;22.00;61.30;;;;;;4974465;28;20125;-80
2021/07/22 07:31:22;;;;;;;6.47;4.57;;;22.00;61.40;;;;;;4958180;28;20065;-80
2021/07/22 07:33:49;;;;;;;6.18;5.03;;;22.00;61.30;;;;;;4974346;28;20066;-80
2021/07/22 07:36:14;;;;;;;5.80;4.55;;;22.00;61.40;;;;;;4958184;28;20030;-80
2021/07/22 07:38:40;;;;;;;7.07;4.95;;;22.10;61.40;;;;;;4957997;28;20035;-79
2021/07/22 07:41:06;;;;;;;6.97;5.20;;;22.10;61.30;;;;;;4957719;28;20042;-78
2021/07/22 07:43:32;;;;;;;7.03;4.88;;;22.10;61.30;;;;;;4975057;28;20031;-84
2021/07/22 07:45:58;;;;;;;6.97;4.60;;;22.10;61.30;;;;;;4957730;28;20479;-80
2021/07/22 07:48:23;;;;;;;6.22;4.50;;;22.10;61.30;;;;;;4958270;28;20426;-81
2021/07/22 07:50:49;;;;;;;5.63;4.10;;;22.10;61.20;;;;;;4957709;28;20039;-82
2021/07/22 07:53:17;;;;;;;6.20;4.43;;;22.10;61.20;;;;;;4973874;28;20038;-81
2021/07/22 07:55:44;;;;;;;6.10;4.45;;;22.20;61.20;;;;;;4973950;28;20476;-80
2021/07/22 07:58:09;;;;;;;6.40;4.55;;;22.20;61.10;;;;;;4973891;28;20479;-80
2021/07/22 08:00:37;;;;;;;6.28;4.43;;;22.20;61.00;;;;;;4957802;28;20033;-80
2021/07/22 08:03:03;;;;;;;5.65;4.57;;;22.30;61.10;;;;;;4957892;28;20105;-84
2021/07/22 08:05:29;;;;;;;5.90;4.53;;;22.30;61.00;;;;;;4957987;28;20035;-83
2021/07/22 08:07:55;;;;;;;6.65;4.43;;;22.40;61.00;;;;;;4974884;28;20022;-82
2021/07/22 08:10:21;;;;;;;6.28;4.75;;;22.40;61.70;;;;;;4957673;28;20041;-81
2021/07/22 08:12:47;;;;;;;5.88;4.35;;;22.50;61.80;;;;;;4941668;28;20031;-80
2021/07/22 08:15:13;;;;;;;6.97;4.95;;;22.50;61.10;;;;;;4973359;28;20448;-81
2021/07/22 08:17:40;;;;;;;5.50;4.20;;;22.60;61.10;;;;;;4957110;28;20031;-81
2021/07/22 08:20:08;;;;;;;5.95;4.65;;;22.70;61.00;;;;;;4957467;28;20073;-82
2021/07/22 08:22:36;;;;;;;6.07;4.63;;;22.70;60.90;;;;;;4957380;28;20138;-81
2021/07/22 08:25:03;;;;;;;6.35;4.38;;;22.80;60.90;;;;;;4957634;28;20030;-80
2021/07/22 08:27:30;;;;;;;6.38;4.82;;;22.80;60.80;;;;;;4972961;28;20496;-80
2021/07/22 08:29:56;;;;;;;7.78;5.15;;;22.90;60.80;;;;;;4973434;28;20417;-81
2021/07/22 08:32:23;;;;;;;6.25;4.80;;;22.90;60.70;;;;;;4973385;28;20035;-81
2021/07/22 08:34:49;;;;;;;6.97;5.22;;;22.90;60.60;;;;;;4957595;28;20027;-81
2021/07/22 08:37:15;;;;;;;6.45;4.55;;;23.00;60.60;;;;;;4974302;28;20035;-80
2021/07/22 08:39:43;;;;;;;6.28;4.97;;;23.10;60.60;;;;;;4977302;28;20494;-81
2021/07/22 08:42:10;;;;;;;7.05;5.15;;;23.10;60.50;;;;;;4961059;28;20031;-83
2021/07/22 08:44:37;;;;;;;5.28;4.07;;;23.10;60.50;;;;;;4961444;28;20093;-82
2021/07/22 08:47:07;;;;;;;6.43;4.95;;;23.10;60.40;;;;;;4978316;28;20424;-82
2021/07/22 08:49:34;;;;;;;6.18;4.70;;;23.20;60.50;;;;;;4977311;28;20026;-82
2021/07/22 08:52:01;;;;;;;6.18;4.50;;;23.20;60.40;;;;;;4978131;28;20039;-81
2021/07/22 08:54:27;;;;;;;5.72;4.32;;;23.20;60.40;;;;;;4977075;28;20031;-81
2021/07/22 08:56:56;;;;;;;6.53;4.72;;;23.20;60.40;;;;;;4961017;28;20037;-82
2021/07/22 08:59:25;;;;;;;6.40;4.72;;;23.30;60.40;;;;;;4960703;28;20031;-82
2021/07/22 09:01:56;;;;;;;5.60;4.40;;;23.30;60.40;;;;;;4976782;28;20070;-82
2021/07/22 09:04:21;;;;;;;5.65;3.85;;;23.40;60.40;;;;;;4960469;28;20030;-81
2021/07/22 09:06:47;;;;;;;6.68;4.75;;;23.40;60.30;;;;;;4960888;28;20029;-80
2021/07/22 09:09:15;;;;;;;6.65;5.05;;;23.40;60.30;;;;;;4960866;28;20554;-81
2021/07/22 09:11:57;;;;;;;6.75;4.60;;;23.40;60.30;;;;;;4960722;28;20045;-81
2021/07/22 09:14:25;;;;;;;6.13;4.50;;;23.50;60.40;;;;;;4977614;28;20031;-82
2021/07/22 09:16:51;;;;;;;6.03;4.45;;;23.50;60.20;;;;;;4976982;28;20058;-82
2021/07/22 09:19:32;;;;;;;6.40;4.45;;;23.50;60.10;;;;;;4976905;28;20033;-81
2021/07/22 09:21:58;;;;;;;5.65;3.97;;;23.60;60.30;;;;;;4977653;28;20042;-82
2021/07/22 09:24:24;;;;;;;5.68;4.65;;;23.70;60.10;;;;;;4960772;28;20063;-81
2021/07/22 09:26:51;;;;;;;5.78;4.20;;;23.70;60.10;;;;;;4960400;28;20065;-80
2021/07/22 09:29:18;;;;;;;6.05;3.92;;;23.80;60.00;;;;;;4960570;28;20062;-81
2021/07/22 09:31:44;;;;;;;5.72;4.22;;;23.80;60.00;;;;;;4976684;28;20498;-81
2021/07/22 09:34:22;;;;;;;6.10;4.40;;;23.90;59.90;;;;;;4960333;28;20535;-84
2021/07/22 09:36:48;;;;;;;5.50;4.15;;;23.90;59.90;;;;;;4960640;28;20480;-83
2021/07/22 09:39:21;;;;;;;5.55;4.18;;;24.00;59.80;;;;;;4960409;28;20054;-82
2021/07/22 09:42:02;;;;;;;5.90;4.30;;;24.00;59.80;;;;;;4960231;28;20093;-81
2021/07/22 09:44:35;;;;;;;5.32;4.00;;;24.10;59.80;;;;;;4960480;28;20531;-82
2021/07/22 09:47:03;;;;;;;5.45;4.47;;;24.20;59.70;;;;;;4960326;28;20038;-83
2021/07/22 09:49:39;;;;;;;6.15;4.20;;;24.20;59.60;;;;;;4943578;28;20114;-82
2021/07/22 09:52:17;;;;;;;5.82;4.00;;;24.20;59.70;;;;;;4977301;28;20084;-80
2021/07/22 09:54:43;;;;;;;5.07;3.50;;;24.30;59.60;;;;;;4976253;28;20042;-82
2021/07/22 09:57:22;;;;;;;5.43;3.90;;;24.30;59.50;;;;;;4976065;28;20035;-81
2021/07/22 09:59:50;;;;;;;5.00;3.97;;;24.40;59.60;;;;;;4975823;28;20464;-81
2021/07/22 10:02:23;;;;;;;5.43;3.88;;;24.40;59.50;;;;;;4959719;28;20559;-82
2021/07/22 10:05:03;;;;;;;4.70;3.67;;;24.50;59.50;;;;;;4959790;28;20039;-80
2021/07/22 10:07:30;;;;;;;5.03;3.85;;;24.50;59.40;;;;;;4959470;28;20026;-81
2021/07/22 10:09:58;;;;;;;4.75;3.45;;;24.60;59.30;;;;;;4960550;28;20381;-81
2021/07/22 10:12:24;;;;;;;5.35;3.80;;;24.60;59.30;;;;;;4959835;28;20026;-81
2021/07/22 10:14:55;;;;;;;5.13;3.33;;;24.70;59.30;;;;;;4959848;28;20038;-81
2021/07/22 10:17:34;;;;;;;4.65;3.45;;;24.70;59.30;;;;;;4959732;28;20456;-81
2021/07/22 10:20:04;;;;;;;4.95;3.70;;;24.80;59.30;;;;;;4977384;28;20032;-81
2021/07/22 10:22:31;;;;;;;4.35;3.28;;;24.80;59.10;;;;;;4976766;28;20035;-81
2021/07/22 10:24:57;;;;;;;4.40;3.22;;;24.90;59.10;;;;;;4959723;28;20069;-81
2021/07/22 10:27:24;;;;;;;4.95;3.75;;;24.90;59.10;;;;;;4975887;28;20488;-80
2021/07/22 10:29:50;;;;;;;4.32;3.25;;;25.00;59.10;;;;;;4959637;28;20049;-80
2021/07/22 10:32:18;;;;;;;4.50;3.42;;;25.10;59.10;;;;;;4975481;28;20046;-81
2021/07/22 10:34:46;;;;;;;5.28;3.92;;;25.10;59.10;;;;;;4959155;28;20031;-80
2021/07/22 10:37:19;;;;;;;5.47;3.80;;;25.10;59.00;;;;;;4974957;28;20126;-81
2021/07/22 10:40:08;;;;;;;4.57;3.25;;;25.20;59.10;;;;;;4959297;28;20035;-80
2021/07/22 10:42:46;;;;;;;4.75;3.30;;;25.30;59.20;;;;;;4975857;28;20471;-80
2021/07/22 10:45:32;;;;;;;4.47;3.45;;;25.30;59.50;;;;;;4958947;28;20190;-80
2021/07/22 10:48:10;;;;;;;4.03;3.17;;;25.30;59.00;;;;;;4974991;28;20219;-80
2021/07/22 10:50:42;;;;;;;4.85;3.25;;;25.40;59.00;;;;;;4958764;28;20038;-81
2021/07/22 10:53:09;;;;;;;4.28;3.40;;;25.50;58.90;;;;;;4974930;28;20051;-81
2021/07/22 10:55:45;;;;;;;4.53;3.42;;;25.50;58.90;;;;;;4958797;28;20031;-80
2021/07/22 10:58:29;;;;;;;4.40;3.30;;;25.60;58.90;;;;;;4958689;28;20023;-81
2021/07/22 11:00:56;;;;;;;4.35;3.28;;;25.60;58.90;;;;;;4958808;28;20505;-84
2021/07/22 11:03:38;;;;;;;5.13;3.70;;;25.60;58.40;;;;;;4958547;28;20054;-77
2021/07/22 11:06:09;;;;;;;4.70;3.45;;;25.70;58.10;;;;;;4974480;28;20038;-79
2021/07/22 11:08:40;;;;;;;5.78;3.60;;;25.80;58.00;;;;;;4974728;28;20036;-77
2021/07/22 11:11:08;;;;;;;4.57;3.28;;;25.80;57.80;;;;;;4958488;28;20042;-79
2021/07/22 11:13:37;;;;;;;4.20;3.30;;;25.90;57.80;;;;;;4958498;28;20044;-79
2021/07/22 11:16:08;;;;;;;4.18;3.15;;;25.90;57.80;;;;;;4974492;28;20121;-78
2021/07/22 11:18:42;;;;;;;4.72;2.92;;;26.00;57.80;;;;;;4958293;28;20031;-78
2021/07/22 11:21:12;;;;;;;5.32;3.33;;;26.00;57.70;;;;;;4958167;28;20121;-78
2021/07/22 11:23:40;;;;;;;4.30;3.08;;;26.00;57.70;;;;;;4974178;28;20073;-78
2021/07/22 11:26:06;;;;;;;4.63;3.30;;;26.10;57.60;;;;;;4958175;28;20027;-78
2021/07/22 11:28:32;;;;;;;5.10;3.85;;;26.10;57.60;;;;;;4957695;28;20377;-79
2021/07/22 11:31:04;;;;;;;3.95;2.97;;;26.20;57.60;;;;;;4958286;28;20360;-79
2021/07/22 11:33:37;;;;;;;4.97;3.72;;;26.20;57.60;;;;;;4942210;28;20035;-78
2021/07/22 11:36:08;;;;;;;4.27;3.37;;;26.30;57.70;;;;;;4974066;28;20089;-79
2021/07/22 11:38:35;;;;;;;4.40;3.15;;;26.30;57.70;;;;;;4973911;28;20762;-77
2021/07/22 11:41:09;;;;;;;5.10;3.55;;;26.30;57.60;;;;;;4957908;28;20054;-78
2021/07/22 11:43:38;;;;;;;4.68;3.10;;;26.40;57.60;;;;;;4958607;28;20073;-78
2021/07/22 11:46:27;;;;;;;4.57;3.13;;;26.40;57.60;;;;;;4974175;28;20101;-78
2021/07/22 11:48:54;;;;;;;4.03;3.03;;;26.40;57.50;;;;;;4963491;28;20046;-78
2021/07/22 11:51:20;;;;;;;4.68;3.50;;;26.40;57.40;;;;;;4974421;28;20117;-80
2021/07/22 11:53:46;;;;;;;3.75;3.05;;;26.50;57.50;;;;;;4974008;28;20451;-78
2021/07/22 11:56:19;;;;;;;4.78;3.45;;;26.50;58.10;;;;;;4973738;28;20035;-78
2021/07/22 11:58:50;;;;;;;4.25;3.15;;;26.50;57.40;;;;;;4973761;28;20031;-78
2021/07/22 12:01:16;;;;;;;4.82;3.42;;;26.60;57.50;;;;;;4958127;28;20074;-79
2021/07/22 12:03:48;;;;;;;4.50;3.30;;;26.60;57.40;;;;;;4974198;28;20065;-79
2021/07/22 12:06:24;;;;;;;4.18;3.17;;;26.60;57.40;;;;;;4957661;28;20039;-78
2021/07/22 12:09:08;;;;;;;3.80;2.88;;;26.60;57.30;;;;;;4973869;28;20054;-78
2021/07/22 12:11:58;;;;;;;4.05;3.20;;;26.70;57.40;;;;;;4975154;28;20035;-80
2021/07/22 12:14:35;;;;;;;4.93;3.08;;;26.70;57.30;;;;;;4973318;28;20093;-79
2021/07/22 12:17:07;;;;;;;4.53;3.28;;;26.70;57.30;;;;;;4957881;28;20136;-78
2021/07/22 12:19:34;;;;;;;4.22;3.00;;;26.70;57.20;;;;;;4957535;28;20042;-79
2021/07/22 12:22:21;;;;;;;4.85;3.38;;;26.80;57.40;;;;;;4957125;28;20134;-78
2021/07/22 12:24:51;;;;;;;4.65;3.25;;;26.70;57.40;;;;;;4974577;28;20027;-80
2021/07/22 12:27:35;;;;;;;3.95;2.83;;;26.70;57.20;;;;;;4957270;28;20034;-78
2021/07/22 12:30:07;;;;;;;5.65;3.30;;;26.70;57.30;;;;;;4973773;28;20484;-78
2021/07/22 12:32:34;;;;;;;4.10;2.83;;;26.80;57.30;;;;;;4973664;28;20057;-78
2021/07/22 12:35:00;;;;;;;3.75;3.13;;;26.80;57.30;;;;;;4957344;28;20472;-81
2021/07/22 12:37:52;;;;;;;3.97;3.08;;;26.80;57.20;;;;;;4957322;28;20196;-81
2021/07/22 12:40:18;;;;;;;3.97;3.03;;;26.80;57.30;;;;;;4957429;28;20038;-77
2021/07/22 12:43:00;;;;;;;4.10;2.97;;;26.90;57.20;;;;;;4957068;28;20078;-78
2021/07/22 12:45:26;;;;;;;3.90;2.90;;;26.90;57.30;;;;;;4973758;28;20207;-80
2021/07/22 12:47:51;;;;;;;4.15;3.30;;;26.90;57.20;;;;;;4974509;28;20387;-79
2021/07/22 12:50:31;;;;;;;5.03;3.67;;;26.90;57.10;;;;;;4941012;28;20043;-77
2021/07/22 12:53:03;;;;;;;4.53;3.40;;;26.90;57.20;;;;;;4957079;28;20471;-84
2021/07/22 12:55:38;;;;;;;4.20;3.00;;;26.90;57.10;;;;;;4957931;28;20093;-82
2021/07/22 12:58:05;;;;;;;4.53;3.00;;;26.90;57.10;;;;;;4957201;28;20034;-81
2021/07/22 13:00:41;;;;;;;4.32;3.08;;;26.90;57.00;;;;;;4973001;28;20034;-80
2021/07/22 13:03:07;;;;;;;3.20;2.60;;;27.00;57.00;;;;;;4974193;28;20027;-82
2021/07/22 13:05:33;;;;;;;4.03;3.05;;;27.00;56.80;;;;;;4957361;28;20030;-80